createdAt,value
2022-11-04T00:01:06.121Z,10.09
2022-11-04T00:04:09.405Z,10.08
2022-11-04T00:07:31.496Z,10.04
2022-11-04T00:11:11.705Z,10.04
2022-11-04T00:14:14.756Z,10.11
2022-11-04T00:17:19.889Z,10.04
2022-11-04T00:20:41.063Z,10.05
2022-11-04T00:24:01.660Z,10.11
2022-11-04T00:27:22.409Z,10.18
2022-11-04T00:30:24.575Z,10.16
2022-11-04T00:33:27.042Z,10.11
2022-11-04T00:36:29.292Z,10.10
2022-11-04T00:39:31.437Z,10.06
2022-11-04T00:42:33.689Z,10.09
2022-11-04T00:45:36.118Z,10.05
2022-11-04T00:48:38.206Z,10.05
2022-11-04T00:51:40.356Z,10.00
2022-11-04T00:54:42.533Z,10.02
2022-11-04T00:57:44.688Z,10.03
2022-11-04T01:00:46.818Z,10.03
2022-11-04T01:03:51.428Z,10.04
2022-11-04T01:06:53.604Z,10.05
2022-11-04T01:09:55.759Z,10.08
2022-11-04T01:12:57.907Z,10.01
2022-11-04T01:16:01.274Z,10.14
2022-11-04T01:19:04.016Z,10.16
2022-11-04T01:22:06.197Z,10.16
2022-11-04T01:25:09.390Z,10.12
2022-11-04T01:28:11.628Z,10.09
2022-11-04T01:31:21.228Z,10.04
2022-11-04T01:34:23.476Z,10.08
2022-11-04T01:37:25.601Z,10.06
2022-11-04T01:40:27.773Z,10.19
2022-11-04T01:43:52.367Z,10.26
2022-11-04T01:46:54.807Z,10.26
2022-11-04T01:50:01.726Z,10.20
2022-11-04T01:53:09.446Z,10.04
2022-11-04T01:56:13.240Z,10.14
2022-11-04T01:59:21.708Z,10.10
2022-11-04T02:02:24.031Z,10.09
2022-11-04T02:05:27.764Z,10.15
2022-11-04T02:08:30.223Z,10.04
2022-11-04T02:11:51.034Z,9.96
2022-11-04T02:14:54.803Z,9.81
2022-11-04T02:17:56.904Z,9.82
2022-11-04T02:21:20.218Z,9.79
2022-11-04T02:24:33.335Z,9.73
2022-11-04T02:28:04.786Z,9.86
2022-11-04T02:31:24.239Z,9.75
2022-11-04T02:34:37.950Z,9.71
2022-11-04T02:41:21.128Z,9.65
2022-11-04T02:44:33.844Z,9.47
2022-11-04T02:47:38.650Z,9.58
2022-11-04T02:50:51.449Z,9.57
2022-11-04T02:54:05.327Z,9.64
2022-11-04T02:57:10.489Z,9.65
2022-11-04T03:00:16.321Z,9.58
2022-11-04T03:03:22.652Z,9.57
2022-11-04T03:06:25.782Z,9.55
2022-11-04T03:09:29.582Z,9.47
2022-11-04T03:12:39.826Z,9.36
2022-11-04T03:15:58.417Z,9.38
2022-11-04T03:19:06.533Z,9.52
2022-11-04T03:22:15.415Z,9.44
2022-11-04T03:25:17.680Z,9.49
2022-11-04T03:29:00.272Z,9.33
2022-11-04T03:32:41.784Z,9.24
2022-11-04T03:35:44.055Z,9.32
2022-11-04T03:38:46.571Z,9.28
2022-11-04T03:41:52.892Z,9.38
2022-11-04T03:44:58.336Z,9.25
2022-11-04T03:48:00.777Z,9.11
2022-11-04T03:51:03.063Z,9.05
2022-11-04T03:54:05.887Z,8.81
2022-11-04T03:57:31.056Z,8.81
2022-11-04T04:00:39.034Z,8.92
2022-11-04T04:03:48.651Z,8.89
2022-11-04T04:06:52.293Z,8.79
2022-11-04T04:10:25.241Z,8.75
2022-11-04T04:13:55.699Z,8.81
2022-11-04T04:16:59.442Z,8.69
2022-11-04T04:20:05.316Z,8.60
2022-11-04T04:23:36.277Z,8.52
2022-11-04T04:26:58.343Z,8.52
2022-11-04T04:30:01.790Z,8.44
2022-11-04T04:33:15.832Z,8.39
2022-11-04T04:36:18.000Z,8.43
2022-11-04T04:39:41.823Z,8.27
2022-11-04T04:43:02.561Z,8.27
2022-11-04T04:46:05.207Z,8.25
2022-11-04T04:49:08.870Z,8.19
2022-11-04T04:52:11.029Z,8.25
2022-11-04T04:55:14.054Z,8.19
2022-11-04T04:58:16.194Z,8.24
2022-11-04T05:01:18.853Z,8.19
2022-11-04T05:04:21.132Z,8.26
2022-11-04T05:07:23.393Z,8.27
2022-11-04T05:10:25.540Z,8.25
2022-11-04T05:13:29.503Z,8.28
2022-11-04T05:16:34.326Z,8.19
2022-11-04T05:19:38.861Z,8.27
2022-11-04T05:22:41.067Z,8.17
2022-11-04T05:25:43.287Z,8.24
2022-11-04T05:28:45.468Z,8.19
2022-11-04T05:31:48.270Z,8.20
2022-11-04T05:34:50.466Z,8.13
2022-11-04T05:37:52.663Z,8.19
2022-11-04T05:40:58.029Z,8.11
2022-11-04T05:44:02.181Z,8.13
2022-11-04T05:47:04.375Z,8.11
2022-11-04T05:50:07.198Z,8.09
2022-11-04T05:53:09.582Z,8.07
2022-11-04T05:56:12.178Z,8.09
2022-11-04T05:59:14.295Z,8.12
2022-11-04T06:02:16.711Z,8.15
2022-11-04T06:05:19.084Z,8.16
2022-11-04T06:08:21.200Z,8.13
2022-11-04T06:11:24.163Z,8.08
2022-11-04T06:14:26.319Z,7.96
2022-11-04T06:17:28.459Z,8.04
2022-11-04T06:20:30.591Z,7.98
2022-11-04T06:23:32.747Z,7.92
2022-11-04T06:26:35.330Z,8.06
2022-11-04T06:29:41.345Z,7.93
2022-11-04T06:32:43.483Z,7.93
2022-11-04T06:35:45.641Z,7.93
2022-11-04T06:38:47.802Z,8.02
2022-11-04T06:41:51.703Z,8.04
2022-11-04T06:44:54.347Z,8.09
2022-11-04T06:47:56.501Z,8.00
2022-11-04T06:50:59.952Z,8.07
2022-11-04T06:54:02.162Z,8.09
2022-11-04T06:57:04.328Z,8.20
2022-11-04T07:00:07.274Z,8.16
2022-11-04T07:03:10.117Z,8.33
2022-11-04T07:06:12.717Z,8.36
2022-11-04T07:09:15.891Z,8.34
2022-11-04T07:12:18.091Z,8.32
2022-11-04T07:15:24.714Z,8.30
2022-11-04T07:18:29.514Z,8.36
2022-11-04T07:21:31.869Z,8.37
2022-11-04T07:24:34.748Z,8.39
2022-11-04T07:27:36.906Z,8.41
2022-11-04T07:30:39.120Z,8.44
2022-11-04T07:33:41.257Z,8.45
2022-11-04T07:36:43.480Z,8.53
2022-11-04T07:39:45.601Z,8.59
2022-11-04T07:42:47.748Z,8.61
2022-11-04T07:46:04.971Z,8.70
2022-11-04T07:49:08.018Z,8.62
2022-11-04T07:52:10.367Z,8.48
2022-11-04T07:55:18.472Z,8.49
2022-11-04T07:58:23.139Z,8.46
2022-11-04T08:01:25.716Z,8.45
2022-11-04T08:04:28.063Z,8.52
2022-11-04T08:07:30.935Z,8.61
2022-11-04T08:10:33.238Z,8.87
2022-11-04T08:13:36.717Z,8.94
2022-11-04T08:16:38.860Z,8.97
2022-11-04T08:19:41.368Z,9.07
2022-11-04T08:22:43.499Z,8.89
2022-11-04T08:25:46.108Z,8.82
2022-11-04T08:28:48.285Z,8.79
2022-11-04T08:31:50.424Z,8.71
2022-11-04T08:34:52.552Z,8.74
2022-11-04T08:37:54.778Z,8.82
2022-11-04T08:41:00.100Z,8.83
2022-11-04T08:44:04.258Z,8.78
2022-11-04T08:47:06.721Z,8.84
2022-11-04T08:50:09.050Z,8.93
2022-11-04T08:53:12.207Z,8.94
2022-11-04T08:56:18.681Z,8.92
2022-11-04T08:59:20.829Z,8.90
2022-11-04T09:02:22.957Z,8.94
2022-11-04T09:05:25.972Z,9.13
2022-11-04T09:08:28.246Z,9.15
2022-11-04T09:11:36.819Z,9.23
2022-11-04T09:14:39.026Z,9.20
2022-11-04T09:17:41.357Z,9.01
2022-11-04T09:20:43.574Z,8.95
2022-11-04T09:23:46.754Z,8.94
2022-11-04T09:26:48.905Z,8.98
2022-11-04T09:29:51.077Z,9.05
2022-11-04T09:32:53.300Z,9.06
2022-11-04T09:35:57.739Z,9.08
2022-11-04T09:39:00.011Z,9.18
2022-11-04T09:42:17.950Z,9.03
2022-11-04T09:45:26.424Z,9.08
2022-11-04T09:48:37.128Z,9.07
2022-11-04T09:51:54.362Z,8.98
2022-11-04T09:55:06.579Z,9.10
2022-11-04T09:58:09.101Z,9.15
2022-11-04T10:01:20.390Z,9.05
2022-11-04T10:04:41.463Z,9.22
2022-11-04T10:08:05.140Z,9.08
2022-11-04T10:11:19.183Z,9.11
2022-11-04T10:14:41.842Z,8.89
2022-11-04T10:17:52.835Z,9.13
2022-11-04T10:20:54.969Z,9.06
2022-11-04T10:24:09.610Z,9.22
2022-11-04T10:27:22.926Z,9.33
2022-11-04T10:30:25.772Z,9.12
2022-11-04T10:33:35.867Z,9.27
2022-11-04T10:36:38.507Z,9.27
2022-11-04T10:39:45.612Z,8.95
2022-11-04T10:42:48.012Z,9.00
2022-11-04T10:46:28.013Z,8.83
2022-11-04T10:49:39.193Z,9.11
2022-11-04T10:52:41.897Z,9.01
2022-11-04T10:56:01.917Z,8.89
2022-11-04T10:59:20.407Z,8.85
2022-11-04T11:02:38.152Z,8.97
2022-11-04T11:05:40.970Z,9.04
2022-11-04T11:08:44.122Z,9.05
2022-11-04T11:11:48.295Z,8.94
2022-11-04T11:14:50.534Z,9.08
2022-11-04T11:18:08.184Z,9.07
2022-11-04T11:21:12.079Z,9.21
2022-11-04T11:24:21.790Z,9.26
2022-11-04T11:27:24.289Z,9.35
2022-11-04T11:30:37.101Z,9.27
2022-11-04T11:33:59.911Z,9.34
2022-11-04T11:37:03.925Z,9.43
2022-11-04T11:40:06.544Z,9.37
2022-11-04T11:43:23.026Z,9.38
2022-11-04T11:46:33.560Z,9.65
2022-11-04T11:49:38.129Z,9.54
2022-11-04T11:52:41.703Z,9.52
2022-11-04T11:56:17.672Z,9.36
2022-11-04T12:03:23.994Z,9.51
2022-11-04T12:06:27.021Z,9.66
2022-11-04T12:09:37.068Z,9.72
2022-11-04T12:12:57.683Z,9.69
2022-11-04T12:16:21.585Z,9.64
2022-11-04T12:20:15.163Z,9.76
2022-11-04T12:23:30.276Z,9.91
2022-11-04T12:27:00.201Z,10.02
2022-11-04T12:30:12.306Z,9.68
2022-11-04T12:33:24.189Z,9.54
2022-11-04T12:37:11.462Z,9.59
2022-11-04T12:40:33.220Z,9.60
2022-11-04T12:43:44.661Z,9.77
2022-11-04T12:47:09.785Z,9.79
2022-11-04T12:50:15.056Z,9.89
2022-11-04T12:53:45.234Z,10.00
2022-11-04T12:56:56.999Z,10.05
2022-11-04T13:00:07.984Z,10.05
2022-11-04T13:03:19.307Z,10.07
2022-11-04T13:06:33.812Z,10.08
2022-11-04T13:09:46.519Z,10.19
2022-11-04T13:12:50.893Z,10.16
2022-11-04T13:15:58.049Z,10.06
2022-11-04T13:19:01.059Z,10.08
2022-11-04T13:22:08.840Z,10.13
2022-11-04T13:25:28.241Z,10.21
2022-11-04T13:28:30.479Z,10.12
2022-11-04T13:31:44.852Z,10.16
2022-11-04T13:35:31.776Z,10.11
2022-11-04T13:38:40.898Z,10.12
2022-11-04T13:42:13.688Z,10.26
2022-11-04T13:45:17.706Z,10.25
2022-11-04T13:48:25.484Z,10.31
2022-11-04T13:51:44.455Z,10.27
2022-11-04T13:54:57.195Z,10.28
2022-11-04T13:58:04.356Z,10.24
2022-11-04T14:01:11.370Z,10.30
2022-11-04T14:04:13.556Z,10.36
2022-11-04T14:07:18.081Z,10.41
2022-11-04T14:10:59.377Z,10.46
2022-11-04T14:14:03.505Z,10.22
2022-11-04T14:17:34.427Z,10.29
2022-11-04T14:20:37.160Z,10.36
2022-11-04T14:23:41.309Z,10.36
2022-11-04T14:26:48.540Z,10.46
2022-11-04T14:29:52.186Z,10.34
2022-11-04T14:32:57.767Z,10.21
2022-11-04T14:36:21.777Z,10.35
2022-11-04T14:39:44.191Z,10.31
2022-11-04T14:42:51.871Z,10.34
2022-11-04T14:45:55.519Z,10.32
2022-11-04T14:49:01.180Z,10.32
2022-11-04T14:52:03.561Z,10.35
2022-11-04T14:55:11.676Z,10.31
2022-11-04T14:58:25.260Z,10.45
2022-11-04T15:01:34.583Z,10.34
2022-11-04T15:04:37.350Z,10.28
2022-11-04T15:07:40.254Z,10.29
2022-11-04T15:10:42.502Z,10.39
2022-11-04T15:13:50.532Z,10.34
2022-11-04T15:16:55.837Z,10.44
2022-11-04T15:20:00.390Z,10.49
2022-11-04T15:23:03.812Z,10.46
2022-11-04T15:26:06.314Z,10.58
2022-11-04T15:29:10.586Z,10.65
2022-11-04T15:32:16.957Z,10.51
2022-11-04T15:35:19.263Z,10.52
2022-11-04T15:38:23.624Z,10.54
2022-11-04T15:41:47.099Z,10.52
2022-11-04T15:44:52.132Z,10.56
2022-11-04T15:48:22.745Z,10.72
2022-11-04T15:51:25.447Z,10.68
2022-11-04T15:54:30.318Z,10.57
2022-11-04T15:57:34.753Z,10.56
2022-11-04T16:00:36.936Z,10.52
2022-11-04T16:03:39.207Z,10.35
2022-11-04T16:06:43.399Z,10.44
2022-11-04T16:09:51.291Z,10.36
2022-11-04T16:13:21.857Z,10.49
2022-11-04T16:16:26.341Z,10.33
2022-11-04T16:19:29.823Z,10.27
2022-11-04T16:22:39.056Z,10.29
2022-11-04T16:25:41.387Z,10.25
2022-11-04T16:28:43.750Z,10.37
2022-11-04T16:32:05.902Z,10.47
2022-11-04T16:35:17.276Z,10.43
2022-11-04T16:38:19.896Z,10.50
2022-11-04T16:41:23.314Z,10.40
2022-11-04T16:44:26.182Z,10.53
2022-11-04T16:47:30.731Z,10.50
2022-11-04T16:50:35.740Z,10.57
2022-11-04T16:53:37.995Z,10.69
2022-11-04T16:56:40.207Z,10.64
2022-11-04T16:59:43.196Z,10.51
2022-11-04T17:02:46.209Z,10.45
2022-11-04T17:05:50.065Z,10.56
2022-11-04T17:08:55.601Z,10.56
2022-11-04T17:11:57.986Z,10.43
2022-11-04T17:15:00.166Z,10.40
2022-11-04T17:18:02.479Z,10.43
2022-11-04T17:21:09.231Z,10.40
2022-11-04T17:24:11.875Z,10.29
2022-11-04T17:27:14.290Z,10.36
2022-11-04T17:30:17.495Z,10.34
2022-11-04T17:33:20.445Z,10.28
2022-11-04T17:36:23.178Z,10.36
2022-11-04T17:39:25.770Z,10.42
2022-11-04T17:42:51.124Z,10.36
2022-11-04T17:46:13.362Z,10.46
2022-11-04T17:49:18.226Z,10.33
2022-11-04T17:52:20.422Z,10.40
2022-11-04T17:55:27.367Z,10.38
2022-11-04T17:58:30.376Z,10.35
2022-11-04T18:01:34.010Z,10.41
2022-11-04T18:04:36.266Z,10.41
2022-11-04T18:07:38.680Z,10.27
2022-11-04T18:10:40.888Z,10.35
2022-11-04T18:13:43.488Z,10.45
2022-11-04T18:16:47.915Z,10.36
2022-11-04T18:19:51.913Z,10.41
2022-11-04T18:22:54.372Z,10.44
2022-11-04T18:25:56.998Z,10.50
2022-11-04T18:28:59.441Z,10.57
2022-11-04T18:32:01.717Z,10.57
2022-11-04T18:35:04.490Z,10.68
2022-11-04T18:38:06.995Z,10.67
2022-11-04T18:41:09.207Z,10.61
2022-11-04T18:44:16.920Z,10.66
2022-11-04T18:47:20.288Z,10.63
2022-11-04T18:50:22.734Z,10.72
2022-11-04T18:53:27.126Z,10.72
2022-11-04T18:56:30.743Z,10.86
2022-11-04T18:59:33.091Z,10.97
2022-11-04T19:02:35.630Z,10.96
2022-11-04T19:05:44.228Z,10.95
2022-11-04T19:08:47.418Z,11.00
2022-11-04T19:12:09.796Z,10.84
2022-11-04T19:15:12.217Z,10.92
2022-11-04T19:18:17.701Z,10.92
2022-11-04T19:21:21.960Z,10.87
2022-11-04T19:24:24.252Z,11.11
2022-11-04T19:27:26.815Z,11.03
2022-11-04T19:30:29.950Z,10.95
2022-11-04T19:33:32.726Z,10.69
2022-11-04T19:36:39.507Z,10.50
2022-11-04T19:39:41.969Z,10.82
2022-11-04T19:43:03.229Z,10.53
2022-11-04T19:46:05.852Z,10.52
2022-11-04T19:49:09.440Z,10.36
2022-11-04T19:52:11.665Z,10.45
2022-11-04T19:55:14.409Z,10.40
2022-11-04T19:58:17.362Z,10.66
2022-11-04T20:01:20.453Z,10.83
2022-11-04T20:04:22.781Z,10.93
2022-11-04T20:07:25.213Z,10.75
2022-11-04T20:10:27.574Z,10.46
2022-11-04T20:13:46.581Z,10.32
2022-11-04T20:16:48.912Z,10.60
2022-11-04T20:19:51.406Z,10.67
2022-11-04T20:22:53.907Z,10.55
2022-11-04T20:25:56.244Z,10.31
2022-11-04T20:28:58.699Z,10.19
2022-11-04T20:32:01.060Z,10.23
2022-11-04T20:35:03.607Z,10.16
2022-11-04T20:38:05.898Z,10.10
2022-11-04T20:41:10.527Z,10.40
2022-11-04T20:44:14.652Z,10.28
2022-11-04T20:47:17.929Z,10.21
2022-11-04T20:50:20.319Z,10.42
2022-11-04T20:53:22.615Z,10.56
2022-11-04T20:56:25.972Z,10.63
2022-11-04T20:59:28.758Z,10.60
2022-11-04T21:02:31.163Z,10.59
2022-11-04T21:05:34.581Z,10.51
2022-11-04T21:08:37.359Z,10.46
2022-11-04T21:11:39.880Z,10.48
2022-11-04T21:14:42.053Z,10.71
2022-11-04T21:17:44.189Z,10.49
2022-11-04T21:20:46.877Z,10.72
2022-11-04T21:23:49.276Z,10.82
2022-11-04T21:26:51.698Z,10.88
2022-11-04T21:29:53.844Z,10.79
2022-11-04T21:32:56.017Z,10.87
2022-11-04T21:36:10.211Z,10.93
2022-11-04T21:39:13.158Z,11.01
2022-11-04T21:42:15.369Z,11.03
2022-11-04T21:45:17.770Z,10.96
2022-11-04T21:48:19.896Z,10.88
2022-11-04T21:51:24.320Z,10.60
2022-11-04T21:54:27.380Z,10.44
2022-11-04T21:57:30.114Z,10.43
2022-11-04T22:00:32.257Z,10.38
2022-11-04T22:03:34.889Z,10.45
2022-11-04T22:06:37.392Z,10.35
2022-11-04T22:09:39.580Z,10.30
2022-11-04T22:12:44.691Z,10.25
2022-11-04T22:15:58.128Z,10.31
2022-11-04T22:19:02.629Z,10.30
2022-11-04T22:22:04.777Z,10.33
2022-11-04T22:25:07.990Z,10.33
2022-11-04T22:28:10.250Z,10.32
2022-11-04T22:31:18.726Z,10.32
2022-11-04T22:34:20.919Z,10.31
2022-11-04T22:37:23.046Z,10.31
2022-11-04T22:40:26.049Z,10.17
2022-11-04T22:43:28.405Z,10.06
2022-11-04T22:46:32.633Z,10.05
2022-11-04T22:49:34.802Z,9.94
2022-11-04T22:52:36.955Z,9.95
2022-11-04T22:55:39.073Z,9.93
2022-11-04T22:58:41.508Z,9.93
2022-11-04T23:01:43.741Z,9.89
2022-11-04T23:04:46.002Z,9.87
2022-11-04T23:07:48.155Z,9.80
2022-11-04T23:11:09.058Z,9.81
2022-11-04T23:14:32.546Z,9.79
2022-11-04T23:17:53.109Z,9.81
2022-11-04T23:21:15.236Z,9.84
2022-11-04T23:24:35.773Z,9.87
2022-11-04T23:28:07.586Z,9.86
2022-11-04T23:31:09.804Z,9.78
2022-11-04T23:34:30.673Z,9.79
2022-11-04T23:37:32.857Z,9.82
2022-11-04T23:40:35.205Z,9.78
2022-11-04T23:43:37.617Z,9.76
2022-11-04T23:46:58.171Z,9.73
2022-11-04T23:50:19.135Z,9.76
2022-11-04T23:53:40.045Z,9.73
2022-11-04T23:57:00.815Z,9.75
